Terminal Aerodrome Forecast
Issued by NWS Milwaukee/Sullivan, WI

Current Version | Previous Version | Text Only | Print | Product List | Glossary On
Versions: 1 2 3 4 5 6 7 8 9 10 11 12 13 14 15 16 17 18 19 20 21 22 23 24 25 26 27 28 29 30 31 32 33 34 35 36 37 38 39 40 41 42 43 44 45 46 47 48 49 50
000
FTUS43 KMKX 052005 AAA
TAFMSN
TAF AMD
KMSN 052005Z 0520/0618 09011G15KT 6SM -SHRA BR BKN010 OVC020
      TEMPO 0520/0521 SCT010 OVC020
     FM052100 09011G15KT P6SM VCSH OVC015
     FM060400 10006KT 6SM BR OVC015
     FM060600 09004KT 3SM BR OVC003
     FM061600 13006KT 6SM BR BKN040=

USA.gov is the U.S. government's official web portal to all federal, state and local government web resources and services.